sensor_id;sensor_type;location;lat;lon;timestamp;temperature;humidity
27667;DHT22;15074;50.940;5.282;2023-11-19T00:00:29;12.70;99.90
27667;DHT22;15074;50.940;5.282;2023-11-19T00:02:55;12.70;99.90
27667;DHT22;15074;50.940;5.282;2023-11-19T00:05:21;12.80;99.90
27667;DHT22;15074;50.940;5.282;2023-11-19T00:07:46;12.80;99.90
27667;DHT22;15074;50.940;5.282;2023-11-19T00:10:14;12.70;99.90
27667;DHT22;15074;50.940;5.282;2023-11-19T00:12:43;12.80;99.90
27667;DHT22;15074;50.940;5.282;2023-11-19T00:15:10;12.70;99.90
27667;DHT22;15074;50.940;5.282;2023-11-19T00:17:39;12.70;99.90
27667;DHT22;15074;50.940;5.282;2023-11-19T00:20:12;12.70;99.90
27667;DHT22;15074;50.940;5.282;2023-11-19T00:22:38;12.70;99.90
27667;DHT22;15074;50.940;5.282;2023-11-19T00:25:04;12.70;99.90
27667;DHT22;15074;50.940;5.282;2023-11-19T00:27:30;12.70;99.90
27667;DHT22;15074;50.940;5.282;2023-11-19T00:29:56;12.70;99.90
27667;DHT22;15074;50.940;5.282;2023-11-19T00:32:22;12.70;99.90
27667;DHT22;15074;50.940;5.282;2023-11-19T00:34:48;12.70;99.90
27667;DHT22;15074;50.940;5.282;2023-11-19T00:37:14;12.80;99.90
27667;DHT22;15074;50.940;5.282;2023-11-19T00:39:43;12.80;99.90
27667;DHT22;15074;50.940;5.282;2023-11-19T00:42:12;12.80;99.90
27667;DHT22;15074;50.940;5.282;2023-11-19T00:44:37;12.80;99.90
27667;DHT22;15074;50.940;5.282;2023-11-19T00:47:03;12.70;99.90
27667;DHT22;15074;50.940;5.282;2023-11-19T00:49:30;12.70;99.90
27667;DHT22;15074;50.940;5.282;2023-11-19T00:51:58;12.70;99.90
27667;DHT22;15074;50.940;5.282;2023-11-19T00:54:24;12.70;99.90
27667;DHT22;15074;50.940;5.282;2023-11-19T00:56:51;12.70;99.90
27667;DHT22;15074;50.940;5.282;2023-11-19T00:59:18;12.70;99.90
27667;DHT22;15074;50.940;5.282;2023-11-19T01:01:43;12.80;99.90
27667;DHT22;15074;50.940;5.282;2023-11-19T01:04:09;12.80;99.90
27667;DHT22;15074;50.940;5.282;2023-11-19T01:06:35;12.90;99.90
27667;DHT22;15074;50.940;5.282;2023-11-19T01:09:00;12.80;99.90
27667;DHT22;15074;50.940;5.282;2023-11-19T01:11:26;12.80;99.90
27667;DHT22;15074;50.940;5.282;2023-11-19T01:13:52;12.90;99.90
27667;DHT22;15074;50.940;5.282;2023-11-19T01:16:18;12.90;99.90
27667;DHT22;15074;50.940;5.282;2023-11-19T01:18:47;12.90;99.90
27667;DHT22;15074;50.940;5.282;2023-11-19T01:21:14;12.90;99.90
27667;DHT22;15074;50.940;5.282;2023-11-19T01:23:43;12.90;99.90
27667;DHT22;15074;50.940;5.282;2023-11-19T01:26:09;13.00;99.90
27667;DHT22;15074;50.940;5.282;2023-11-19T01:28:41;13.00;99.90
27667;DHT22;15074;50.940;5.282;2023-11-19T01:31:11;13.00;99.90
27667;DHT22;15074;50.940;5.282;2023-11-19T01:33:38;13.00;99.90
27667;DHT22;15074;50.940;5.282;2023-11-19T01:36:05;13.00;99.90
27667;DHT22;15074;50.940;5.282;2023-11-19T01:38:31;13.00;99.90
27667;DHT22;15074;50.940;5.282;2023-11-19T01:40:57;13.00;99.90
27667;DHT22;15074;50.940;5.282;2023-11-19T01:43:36;13.00;99.90
27667;DHT22;15074;50.940;5.282;2023-11-19T01:46:04;13.00;99.90
27667;DHT22;15074;50.940;5.282;2023-11-19T01:48:30;13.00;99.90
27667;DHT22;15074;50.940;5.282;2023-11-19T01:50:57;13.10;99.90
27667;DHT22;15074;50.940;5.282;2023-11-19T01:53:23;13.00;99.90
27667;DHT22;15074;50.940;5.282;2023-11-19T01:55:49;13.10;99.90
27667;DHT22;15074;50.940;5.282;2023-11-19T01:58:15;13.00;99.90
27667;DHT22;15074;50.940;5.282;2023-11-19T02:00:42;13.00;99.90
27667;DHT22;15074;50.940;5.282;2023-11-19T02:03:09;13.10;99.90
27667;DHT22;15074;50.940;5.282;2023-11-19T02:05:35;13.10;99.90
27667;DHT22;15074;50.940;5.282;2023-11-19T02:08:02;13.10;99.90
27667;DHT22;15074;50.940;5.282;2023-11-19T02:10:28;13.00;99.90
27667;DHT22;15074;50.940;5.282;2023-11-19T02:12:54;13.10;99.90
27667;DHT22;15074;50.940;5.282;2023-11-19T02:15:20;13.10;99.90
27667;DHT22;15074;50.940;5.282;2023-11-19T02:17:50;13.10;99.90
27667;DHT22;15074;50.940;5.282;2023-11-19T02:20:16;13.10;99.90
27667;DHT22;15074;50.940;5.282;2023-11-19T02:22:41;13.00;99.90
27667;DHT22;15074;50.940;5.282;2023-11-19T02:25:09;13.00;99.90
27667;DHT22;15074;50.940;5.282;2023-11-19T02:27:49;13.00;99.90
27667;DHT22;15074;50.940;5.282;2023-11-19T02:30:16;13.00;99.90
27667;DHT22;15074;50.940;5.282;2023-11-19T02:32:42;12.90;99.90
27667;DHT22;15074;50.940;5.282;2023-11-19T02:35:08;13.00;99.90
27667;DHT22;15074;50.940;5.282;2023-11-19T02:37:38;12.90;99.90
27667;DHT22;15074;50.940;5.282;2023-11-19T02:40:05;12.90;99.90
27667;DHT22;15074;50.940;5.282;2023-11-19T02:42:31;12.90;99.90
27667;DHT22;15074;50.940;5.282;2023-11-19T02:44:57;12.90;99.90
27667;DHT22;15074;50.940;5.282;2023-11-19T02:47:22;13.00;99.90
27667;DHT22;15074;50.940;5.282;2023-11-19T02:49:49;12.90;99.90
27667;DHT22;15074;50.940;5.282;2023-11-19T02:52:15;12.90;99.90
27667;DHT22;15074;50.940;5.282;2023-11-19T02:54:42;12.90;99.90
27667;DHT22;15074;50.940;5.282;2023-11-19T02:57:08;12.90;99.90
27667;DHT22;15074;50.940;5.282;2023-11-19T02:59:38;12.80;99.90
27667;DHT22;15074;50.940;5.282;2023-11-19T03:02:08;12.80;99.90
27667;DHT22;15074;50.940;5.282;2023-11-19T03:04:38;12.70;99.90
27667;DHT22;15074;50.940;5.282;2023-11-19T03:07:08;12.70;99.90
27667;DHT22;15074;50.940;5.282;2023-11-19T03:09:33;12.70;99.90
27667;DHT22;15074;50.940;5.282;2023-11-19T03:12:01;12.70;99.90
27667;DHT22;15074;50.940;5.282;2023-11-19T03:14:26;12.60;99.90
27667;DHT22;15074;50.940;5.282;2023-11-19T03:16:52;12.50;99.90
27667;DHT22;15074;50.940;5.282;2023-11-19T03:19:17;12.50;99.90
27667;DHT22;15074;50.940;5.282;2023-11-19T03:21:43;12.50;99.90
27667;DHT22;15074;50.940;5.282;2023-11-19T03:24:11;12.50;99.90
27667;DHT22;15074;50.940;5.282;2023-11-19T03:26:38;12.50;99.90
27667;DHT22;15074;50.940;5.282;2023-11-19T03:29:03;12.50;99.90
27667;DHT22;15074;50.940;5.282;2023-11-19T03:31:29;12.40;99.90
27667;DHT22;15074;50.940;5.282;2023-11-19T03:33:55;12.30;99.90
27667;DHT22;15074;50.940;5.282;2023-11-19T03:36:20;12.30;99.90
27667;DHT22;15074;50.940;5.282;2023-11-19T03:38:46;12.20;99.90
27667;DHT22;15074;50.940;5.282;2023-11-19T03:41:12;12.20;99.90
27667;DHT22;15074;50.940;5.282;2023-11-19T03:43:39;12.20;99.90
27667;DHT22;15074;50.940;5.282;2023-11-19T03:46:15;12.30;99.90
27667;DHT22;15074;50.940;5.282;2023-11-19T03:48:41;12.40;99.90
27667;DHT22;15074;50.940;5.282;2023-11-19T03:51:06;12.40;99.90
27667;DHT22;15074;50.940;5.282;2023-11-19T03:53:32;12.40;99.90
27667;DHT22;15074;50.940;5.282;2023-11-19T03:55:58;12.30;99.90
27667;DHT22;15074;50.940;5.282;2023-11-19T03:58:24;12.20;99.90
27667;DHT22;15074;50.940;5.282;2023-11-19T04:00:49;12.20;99.90
27667;DHT22;15074;50.940;5.282;2023-11-19T04:03:15;12.20;99.90
27667;DHT22;15074;50.940;5.282;2023-11-19T04:05:40;12.10;99.90
27667;DHT22;15074;50.940;5.282;2023-11-19T04:08:06;12.10;99.90
27667;DHT22;15074;50.940;5.282;2023-11-19T04:10:32;12.00;99.90
27667;DHT22;15074;50.940;5.282;2023-11-19T04:12:57;12.00;99.90
27667;DHT22;15074;50.940;5.282;2023-11-19T04:15:23;12.00;99.90
27667;DHT22;15074;50.940;5.282;2023-11-19T04:17:49;12.00;99.90
27667;DHT22;15074;50.940;5.282;2023-11-19T04:20:15;12.00;99.90
27667;DHT22;15074;50.940;5.282;2023-11-19T04:22:40;12.00;99.90
27667;DHT22;15074;50.940;5.282;2023-11-19T04:25:06;12.00;99.90
27667;DHT22;15074;50.940;5.282;2023-11-19T04:27:32;12.00;99.90
27667;DHT22;15074;50.940;5.282;2023-11-19T04:29:58;12.00;99.90
27667;DHT22;15074;50.940;5.282;2023-11-19T04:32:23;12.00;99.90
27667;DHT22;15074;50.940;5.282;2023-11-19T04:34:50;12.00;99.90
27667;DHT22;15074;50.940;5.282;2023-11-19T04:37:16;11.90;99.90
27667;DHT22;15074;50.940;5.282;2023-11-19T04:39:44;11.90;99.90
27667;DHT22;15074;50.940;5.282;2023-11-19T04:42:10;11.80;99.90
27667;DHT22;15074;50.940;5.282;2023-11-19T04:44:36;11.80;99.90
27667;DHT22;15074;50.940;5.282;2023-11-19T04:47:01;11.90;99.90
27667;DHT22;15074;50.940;5.282;2023-11-19T04:49:27;11.80;99.90
27667;DHT22;15074;50.940;5.282;2023-11-19T04:51:52;11.80;99.90
27667;DHT22;15074;50.940;5.282;2023-11-19T04:54:19;11.80;99.90
27667;DHT22;15074;50.940;5.282;2023-11-19T04:56:47;11.90;99.90
27667;DHT22;15074;50.940;5.282;2023-11-19T04:59:14;11.90;99.90
27667;DHT22;15074;50.940;5.282;2023-11-19T05:01:40;11.90;99.90
27667;DHT22;15074;50.940;5.282;2023-11-19T05:04:06;12.00;99.90
27667;DHT22;15074;50.940;5.282;2023-11-19T05:06:32;12.00;99.90
27667;DHT22;15074;50.940;5.282;2023-11-19T05:08:59;12.00;99.90
27667;DHT22;15074;50.940;5.282;2023-11-19T05:11:33;12.00;99.90
27667;DHT22;15074;50.940;5.282;2023-11-19T05:13:59;12.10;99.90
27667;DHT22;15074;50.940;5.282;2023-11-19T05:16:25;12.10;99.90
27667;DHT22;15074;50.940;5.282;2023-11-19T05:18:51;12.10;99.90
27667;DHT22;15074;50.940;5.282;2023-11-19T05:21:17;12.20;99.90
27667;DHT22;15074;50.940;5.282;2023-11-19T05:23:43;12.20;99.90
27667;DHT22;15074;50.940;5.282;2023-11-19T05:26:08;12.10;99.90
27667;DHT22;15074;50.940;5.282;2023-11-19T05:28:38;12.10;99.90
27667;DHT22;15074;50.940;5.282;2023-11-19T05:31:04;12.00;99.90
27667;DHT22;15074;50.940;5.282;2023-11-19T05:33:31;12.00;99.90
27667;DHT22;15074;50.940;5.282;2023-11-19T05:35:57;12.00;99.90
27667;DHT22;15074;50.940;5.282;2023-11-19T05:38:22;11.90;99.90
27667;DHT22;15074;50.940;5.282;2023-11-19T05:40:48;11.80;99.90
27667;DHT22;15074;50.940;5.282;2023-11-19T05:43:15;11.90;99.90
27667;DHT22;15074;50.940;5.282;2023-11-19T05:45:42;11.80;99.90
27667;DHT22;15074;50.940;5.282;2023-11-19T05:48:07;11.80;99.90
27667;DHT22;15074;50.940;5.282;2023-11-19T05:50:34;11.70;99.90
27667;DHT22;15074;50.940;5.282;2023-11-19T05:53:00;11.60;99.90
27667;DHT22;15074;50.940;5.282;2023-11-19T05:55:26;11.60;99.90
27667;DHT22;15074;50.940;5.282;2023-11-19T05:57:53;11.50;99.90
27667;DHT22;15074;50.940;5.282;2023-11-19T06:00:19;11.50;99.90
27667;DHT22;15074;50.940;5.282;2023-11-19T06:02:45;11.40;99.90
27667;DHT22;15074;50.940;5.282;2023-11-19T06:05:11;11.30;99.90
27667;DHT22;15074;50.940;5.282;2023-11-19T06:07:37;11.30;99.90
27667;DHT22;15074;50.940;5.282;2023-11-19T06:10:04;11.30;99.90
27667;DHT22;15074;50.940;5.282;2023-11-19T06:12:33;11.20;99.90
27667;DHT22;15074;50.940;5.282;2023-11-19T06:14:59;11.30;99.90
27667;DHT22;15074;50.940;5.282;2023-11-19T06:17:25;11.20;99.90
27667;DHT22;15074;50.940;5.282;2023-11-19T06:19:51;11.30;99.90
27667;DHT22;15074;50.940;5.282;2023-11-19T06:22:17;11.30;99.90
27667;DHT22;15074;50.940;5.282;2023-11-19T06:24:42;11.30;99.90
27667;DHT22;15074;50.940;5.282;2023-11-19T06:27:08;11.30;99.90
27667;DHT22;15074;50.940;5.282;2023-11-19T06:29:34;11.30;99.90
27667;DHT22;15074;50.940;5.282;2023-11-19T06:31:59;11.20;99.90
27667;DHT22;15074;50.940;5.282;2023-11-19T06:34:25;11.20;99.90
27667;DHT22;15074;50.940;5.282;2023-11-19T06:36:51;11.20;99.90
27667;DHT22;15074;50.940;5.282;2023-11-19T06:39:16;11.20;99.90
27667;DHT22;15074;50.940;5.282;2023-11-19T06:41:46;11.20;99.90
27667;DHT22;15074;50.940;5.282;2023-11-19T06:44:12;11.10;99.90
27667;DHT22;15074;50.940;5.282;2023-11-19T06:46:38;11.00;99.90
27667;DHT22;15074;50.940;5.282;2023-11-19T06:49:04;11.00;99.90
27667;DHT22;15074;50.940;5.282;2023-11-19T06:51:29;11.00;99.90
27667;DHT22;15074;50.940;5.282;2023-11-19T06:53:55;11.00;99.90
27667;DHT22;15074;50.940;5.282;2023-11-19T06:56:22;11.00;99.90
27667;DHT22;15074;50.940;5.282;2023-11-19T06:58:48;11.10;99.90
27667;DHT22;15074;50.940;5.282;2023-11-19T07:01:18;11.20;99.90
27667;DHT22;15074;50.940;5.282;2023-11-19T07:03:47;11.10;99.90
27667;DHT22;15074;50.940;5.282;2023-11-19T07:06:13;11.20;99.90
27667;DHT22;15074;50.940;5.282;2023-11-19T07:08:40;11.10;99.90
27667;DHT22;15074;50.940;5.282;2023-11-19T07:11:06;11.10;99.90
27667;DHT22;15074;50.940;5.282;2023-11-19T07:13:32;11.10;99.90
27667;DHT22;15074;50.940;5.282;2023-11-19T07:15:57;11.20;99.90
27667;DHT22;15074;50.940;5.282;2023-11-19T07:18:23;11.20;99.90
27667;DHT22;15074;50.940;5.282;2023-11-19T07:20:49;11.20;99.90
27667;DHT22;15074;50.940;5.282;2023-11-19T07:23:15;11.20;99.90
27667;DHT22;15074;50.940;5.282;2023-11-19T07:25:43;11.30;99.90
27667;DHT22;15074;50.940;5.282;2023-11-19T07:28:12;11.20;99.90
27667;DHT22;15074;50.940;5.282;2023-11-19T07:30:38;11.20;99.90
27667;DHT22;15074;50.940;5.282;2023-11-19T07:33:04;11.20;99.90
27667;DHT22;15074;50.940;5.282;2023-11-19T07:35:30;11.30;99.90
27667;DHT22;15074;50.940;5.282;2023-11-19T07:37:56;11.30;99.90
27667;DHT22;15074;50.940;5.282;2023-11-19T07:40:23;11.40;99.90
27667;DHT22;15074;50.940;5.282;2023-11-19T07:42:49;11.40;99.90
27667;DHT22;15074;50.940;5.282;2023-11-19T07:45:15;11.40;99.90
27667;DHT22;15074;50.940;5.282;2023-11-19T07:47:42;11.50;99.90
27667;DHT22;15074;50.940;5.282;2023-11-19T07:50:09;11.50;99.90
27667;DHT22;15074;50.940;5.282;2023-11-19T07:52:35;11.50;99.90
27667;DHT22;15074;50.940;5.282;2023-11-19T07:55:01;11.60;99.90
27667;DHT22;15074;50.940;5.282;2023-11-19T07:57:26;11.90;99.90
27667;DHT22;15074;50.940;5.282;2023-11-19T07:59:55;12.10;99.90
27667;DHT22;15074;50.940;5.282;2023-11-19T08:02:21;12.20;99.90
27667;DHT22;15074;50.940;5.282;2023-11-19T08:04:47;12.30;99.90
27667;DHT22;15074;50.940;5.282;2023-11-19T08:07:15;12.40;99.90
27667;DHT22;15074;50.940;5.282;2023-11-19T08:09:41;12.50;99.90
27667;DHT22;15074;50.940;5.282;2023-11-19T08:12:07;12.50;99.90
27667;DHT22;15074;50.940;5.282;2023-11-19T08:14:34;12.60;99.90
27667;DHT22;15074;50.940;5.282;2023-11-19T08:16:59;12.60;99.90
27667;DHT22;15074;50.940;5.282;2023-11-19T08:19:25;12.80;99.90
27667;DHT22;15074;50.940;5.282;2023-11-19T08:21:51;13.00;99.90
27667;DHT22;15074;50.940;5.282;2023-11-19T08:24:17;13.20;99.90
27667;DHT22;15074;50.940;5.282;2023-11-19T08:26:43;13.40;99.90
27667;DHT22;15074;50.940;5.282;2023-11-19T08:29:08;13.60;99.90
27667;DHT22;15074;50.940;5.282;2023-11-19T08:31:34;13.90;99.90
27667;DHT22;15074;50.940;5.282;2023-11-19T08:34:00;14.30;99.90
27667;DHT22;15074;50.940;5.282;2023-11-19T08:36:26;14.40;99.90
27667;DHT22;15074;50.940;5.282;2023-11-19T08:38:53;14.50;99.90
27667;DHT22;15074;50.940;5.282;2023-11-19T08:41:19;14.60;99.90
27667;DHT22;15074;50.940;5.282;2023-11-19T08:43:45;14.90;99.90
27667;DHT22;15074;50.940;5.282;2023-11-19T08:46:11;15.00;99.90
27667;DHT22;15074;50.940;5.282;2023-11-19T08:48:38;14.90;99.90
27667;DHT22;15074;50.940;5.282;2023-11-19T08:51:04;15.10;99.90
27667;DHT22;15074;50.940;5.282;2023-11-19T08:53:30;15.30;99.90
27667;DHT22;15074;50.940;5.282;2023-11-19T08:55:55;15.00;99.90
27667;DHT22;15074;50.940;5.282;2023-11-19T08:58:21;14.60;99.90
27667;DHT22;15074;50.940;5.282;2023-11-19T09:00:47;14.60;99.90
27667;DHT22;15074;50.940;5.282;2023-11-19T09:03:12;15.00;99.90
27667;DHT22;15074;50.940;5.282;2023-11-19T09:05:38;15.50;99.90
27667;DHT22;15074;50.940;5.282;2023-11-19T09:08:04;15.60;99.90
27667;DHT22;15074;50.940;5.282;2023-11-19T09:10:30;15.30;99.90
27667;DHT22;15074;50.940;5.282;2023-11-19T09:12:56;15.60;99.90
27667;DHT22;15074;50.940;5.282;2023-11-19T09:15:21;15.90;99.90
27667;DHT22;15074;50.940;5.282;2023-11-19T09:17:47;15.90;99.90
27667;DHT22;15074;50.940;5.282;2023-11-19T09:20:12;16.00;99.90
27667;DHT22;15074;50.940;5.282;2023-11-19T09:22:43;16.20;99.90
27667;DHT22;15074;50.940;5.282;2023-11-19T09:25:09;15.90;99.90
27667;DHT22;15074;50.940;5.282;2023-11-19T09:27:35;16.10;99.90
27667;DHT22;15074;50.940;5.282;2023-11-19T09:30:00;15.90;99.90
27667;DHT22;15074;50.940;5.282;2023-11-19T09:32:26;14.90;99.90
27667;DHT22;15074;50.940;5.282;2023-11-19T09:34:52;14.40;99.90
27667;DHT22;15074;50.940;5.282;2023-11-19T09:37:17;14.00;99.90
27667;DHT22;15074;50.940;5.282;2023-11-19T09:39:43;13.60;99.90
27667;DHT22;15074;50.940;5.282;2023-11-19T09:42:09;13.40;99.90
27667;DHT22;15074;50.940;5.282;2023-11-19T09:44:37;13.40;99.90
27667;DHT22;15074;50.940;5.282;2023-11-19T09:47:04;13.40;99.90
27667;DHT22;15074;50.940;5.282;2023-11-19T09:49:30;13.30;99.90
27667;DHT22;15074;50.940;5.282;2023-11-19T09:51:56;13.20;99.90
27667;DHT22;15074;50.940;5.282;2023-11-19T09:54:23;12.90;99.90
27667;DHT22;15074;50.940;5.282;2023-11-19T09:56:48;12.80;99.90
27667;DHT22;15074;50.940;5.282;2023-11-19T09:59:16;13.00;99.90
27667;DHT22;15074;50.940;5.282;2023-11-19T10:01:43;13.80;99.90
27667;DHT22;15074;50.940;5.282;2023-11-19T10:04:14;15.00;99.90
27667;DHT22;15074;50.940;5.282;2023-11-19T10:06:41;15.90;99.90
27667;DHT22;15074;50.940;5.282;2023-11-19T10:09:07;16.90;99.90
27667;DHT22;15074;50.940;5.282;2023-11-19T10:11:33;17.50;99.90
27667;DHT22;15074;50.940;5.282;2023-11-19T10:13:59;17.10;99.90
27667;DHT22;15074;50.940;5.282;2023-11-19T10:16:29;17.30;99.90
27667;DHT22;15074;50.940;5.282;2023-11-19T10:18:56;16.70;99.90
27667;DHT22;15074;50.940;5.282;2023-11-19T10:21:22;16.20;99.90
27667;DHT22;15074;50.940;5.282;2023-11-19T10:23:56;15.80;99.90
27667;DHT22;15074;50.940;5.282;2023-11-19T10:26:26;15.40;99.90
27667;DHT22;15074;50.940;5.282;2023-11-19T10:28:52;15.00;99.90
27667;DHT22;15074;50.940;5.282;2023-11-19T10:31:19;15.30;99.90
27667;DHT22;15074;50.940;5.282;2023-11-19T10:33:50;15.80;99.90
27667;DHT22;15074;50.940;5.282;2023-11-19T10:36:15;15.80;99.90
27667;DHT22;15074;50.940;5.282;2023-11-19T10:38:54;16.30;99.90
27667;DHT22;15074;50.940;5.282;2023-11-19T10:41:46;17.10;99.90
27667;DHT22;15074;50.940;5.282;2023-11-19T10:44:12;16.70;99.90
27667;DHT22;15074;50.940;5.282;2023-11-19T10:46:56;15.60;99.90
27667;DHT22;15074;50.940;5.282;2023-11-19T10:49:21;14.80;99.90
27667;DHT22;15074;50.940;5.282;2023-11-19T10:51:47;14.80;99.90
27667;DHT22;15074;50.940;5.282;2023-11-19T10:54:15;15.10;99.90
27667;DHT22;15074;50.940;5.282;2023-11-19T10:56:44;15.50;99.90
27667;DHT22;15074;50.940;5.282;2023-11-19T10:59:13;15.70;99.90
27667;DHT22;15074;50.940;5.282;2023-11-19T11:01:44;15.60;99.90
27667;DHT22;15074;50.940;5.282;2023-11-19T11:04:25;15.80;99.90
27667;DHT22;15074;50.940;5.282;2023-11-19T11:06:54;15.50;99.90
27667;DHT22;15074;50.940;5.282;2023-11-19T11:09:21;15.20;99.90
27667;DHT22;15074;50.940;5.282;2023-11-19T11:11:50;15.10;99.90
27667;DHT22;15074;50.940;5.282;2023-11-19T11:14:18;14.70;99.90
27667;DHT22;15074;50.940;5.282;2023-11-19T11:16:46;14.60;99.90
27667;DHT22;15074;50.940;5.282;2023-11-19T11:19:12;14.40;99.90
27667;DHT22;15074;50.940;5.282;2023-11-19T11:21:40;14.20;99.90
27667;DHT22;15074;50.940;5.282;2023-11-19T11:29:20;14.00;99.90
27667;DHT22;15074;50.940;5.282;2023-11-19T11:32:34;14.00;99.90
27667;DHT22;15074;50.940;5.282;2023-11-19T11:35:24;14.00;99.90
27667;DHT22;15074;50.940;5.282;2023-11-19T11:37:50;13.80;99.90
27667;DHT22;15074;50.940;5.282;2023-11-19T11:40:18;13.80;99.90
27667;DHT22;15074;50.940;5.282;2023-11-19T11:42:44;13.60;99.90
27667;DHT22;15074;50.940;5.282;2023-11-19T11:45:11;13.40;99.90
27667;DHT22;15074;50.940;5.282;2023-11-19T11:50:12;13.30;99.90
27667;DHT22;15074;50.940;5.282;2023-11-19T11:57:57;13.50;99.90
27667;DHT22;15074;50.940;5.282;2023-11-19T12:00:26;13.50;99.90
27667;DHT22;15074;50.940;5.282;2023-11-19T12:02:52;13.50;99.90
27667;DHT22;15074;50.940;5.282;2023-11-19T12:05:19;13.50;99.90
27667;DHT22;15074;50.940;5.282;2023-11-19T12:07:55;13.40;99.90
27667;DHT22;15074;50.940;5.282;2023-11-19T12:10:21;13.50;99.90
27667;DHT22;15074;50.940;5.282;2023-11-19T12:12:47;13.50;99.90
27667;DHT22;15074;50.940;5.282;2023-11-19T12:15:13;13.60;99.90
27667;DHT22;15074;50.940;5.282;2023-11-19T12:17:46;13.80;99.90
27667;DHT22;15074;50.940;5.282;2023-11-19T12:20:16;14.10;99.90
27667;DHT22;15074;50.940;5.282;2023-11-19T12:22:43;14.20;99.90
27667;DHT22;15074;50.940;5.282;2023-11-19T12:25:11;14.30;99.90
27667;DHT22;15074;50.940;5.282;2023-11-19T12:27:40;14.40;99.90
27667;DHT22;15074;50.940;5.282;2023-11-19T12:30:06;14.40;99.90
27667;DHT22;15074;50.940;5.282;2023-11-19T12:32:42;14.50;99.90
27667;DHT22;15074;50.940;5.282;2023-11-19T12:35:09;14.40;99.90
27667;DHT22;15074;50.940;5.282;2023-11-19T12:37:44;14.90;99.90
27667;DHT22;15074;50.940;5.282;2023-11-19T12:40:19;15.30;99.90
27667;DHT22;15074;50.940;5.282;2023-11-19T12:42:49;15.50;99.90
27667;DHT22;15074;50.940;5.282;2023-11-19T12:45:15;15.30;99.90
27667;DHT22;15074;50.940;5.282;2023-11-19T12:47:43;15.00;99.90
27667;DHT22;15074;50.940;5.282;2023-11-19T12:50:09;14.60;99.90
27667;DHT22;15074;50.940;5.282;2023-11-19T12:52:36;14.40;99.90
27667;DHT22;15074;50.940;5.282;2023-11-19T12:55:03;14.20;99.90
27667;DHT22;15074;50.940;5.282;2023-11-19T12:57:38;14.10;99.90
27667;DHT22;15074;50.940;5.282;2023-11-19T13:00:05;14.10;99.90
27667;DHT22;15074;50.940;5.282;2023-11-19T13:02:45;14.00;99.90
27667;DHT22;15074;50.940;5.282;2023-11-19T13:05:32;14.00;99.90
27667;DHT22;15074;50.940;5.282;2023-11-19T13:08:09;13.90;99.90
27667;DHT22;15074;50.940;5.282;2023-11-19T13:10:51;13.80;99.90
27667;DHT22;15074;50.940;5.282;2023-11-19T13:13:19;13.70;99.90
27667;DHT22;15074;50.940;5.282;2023-11-19T13:15:44;13.70;99.90
27667;DHT22;15074;50.940;5.282;2023-11-19T13:18:11;13.50;99.90
27667;DHT22;15074;50.940;5.282;2023-11-19T13:20:37;13.40;99.90
27667;DHT22;15074;50.940;5.282;2023-11-19T13:23:04;13.50;99.90
27667;DHT22;15074;50.940;5.282;2023-11-19T13:25:31;13.40;99.90
27667;DHT22;15074;50.940;5.282;2023-11-19T13:27:58;13.50;99.90
27667;DHT22;15074;50.940;5.282;2023-11-19T13:30:24;13.50;99.90
27667;DHT22;15074;50.940;5.282;2023-11-19T13:32:51;13.50;99.90
27667;DHT22;15074;50.940;5.282;2023-11-19T13:35:17;13.50;99.90
27667;DHT22;15074;50.940;5.282;2023-11-19T13:37:44;13.80;99.90
27667;DHT22;15074;50.940;5.282;2023-11-19T13:40:11;14.00;99.90
27667;DHT22;15074;50.940;5.282;2023-11-19T13:42:41;14.10;99.90
27667;DHT22;15074;50.940;5.282;2023-11-19T13:45:14;13.90;99.90
27667;DHT22;15074;50.940;5.282;2023-11-19T13:47:45;13.70;99.90
27667;DHT22;15074;50.940;5.282;2023-11-19T13:50:12;13.60;99.90
27667;DHT22;15074;50.940;5.282;2023-11-19T13:52:39;13.60;99.90
27667;DHT22;15074;50.940;5.282;2023-11-19T13:55:06;13.90;99.90
27667;DHT22;15074;50.940;5.282;2023-11-19T13:57:32;13.90;99.90
27667;DHT22;15074;50.940;5.282;2023-11-19T13:59:58;13.70;99.90
27667;DHT22;15074;50.940;5.282;2023-11-19T14:02:23;13.70;99.90
27667;DHT22;15074;50.940;5.282;2023-11-19T14:04:49;13.60;99.90
27667;DHT22;15074;50.940;5.282;2023-11-19T14:07:15;13.60;99.90
27667;DHT22;15074;50.940;5.282;2023-11-19T14:09:42;13.50;99.90
27667;DHT22;15074;50.940;5.282;2023-11-19T14:12:08;13.40;99.90
27667;DHT22;15074;50.940;5.282;2023-11-19T14:14:35;13.20;99.90
27667;DHT22;15074;50.940;5.282;2023-11-19T14:17:02;13.20;99.90
27667;DHT22;15074;50.940;5.282;2023-11-19T14:19:29;13.10;99.90
27667;DHT22;15074;50.940;5.282;2023-11-19T14:21:54;13.20;99.90
27667;DHT22;15074;50.940;5.282;2023-11-19T14:24:20;13.20;99.90
27667;DHT22;15074;50.940;5.282;2023-11-19T14:26:46;13.10;99.90
27667;DHT22;15074;50.940;5.282;2023-11-19T14:29:12;13.00;99.90
27667;DHT22;15074;50.940;5.282;2023-11-19T14:31:38;13.10;99.90
27667;DHT22;15074;50.940;5.282;2023-11-19T14:34:05;13.10;99.90
27667;DHT22;15074;50.940;5.282;2023-11-19T14:36:31;13.00;99.90
27667;DHT22;15074;50.940;5.282;2023-11-19T14:38:56;13.00;99.90
27667;DHT22;15074;50.940;5.282;2023-11-19T14:41:24;12.90;99.90
27667;DHT22;15074;50.940;5.282;2023-11-19T14:43:50;12.80;99.90
27667;DHT22;15074;50.940;5.282;2023-11-19T14:46:15;12.80;99.90
27667;DHT22;15074;50.940;5.282;2023-11-19T14:48:41;12.90;99.90
27667;DHT22;15074;50.940;5.282;2023-11-19T14:51:07;12.90;99.90
27667;DHT22;15074;50.940;5.282;2023-11-19T14:53:33;12.90;99.90
27667;DHT22;15074;50.940;5.282;2023-11-19T14:56:00;12.90;99.90
27667;DHT22;15074;50.940;5.282;2023-11-19T14:58:25;12.90;99.90
27667;DHT22;15074;50.940;5.282;2023-11-19T15:00:52;12.90;99.90
27667;DHT22;15074;50.940;5.282;2023-11-19T15:03:18;12.90;99.90
27667;DHT22;15074;50.940;5.282;2023-11-19T15:05:48;12.90;99.90
27667;DHT22;15074;50.940;5.282;2023-11-19T15:08:14;12.90;99.90
27667;DHT22;15074;50.940;5.282;2023-11-19T15:10:42;12.80;99.90
27667;DHT22;15074;50.940;5.282;2023-11-19T15:13:08;12.80;99.90
27667;DHT22;15074;50.940;5.282;2023-11-19T15:15:34;12.80;99.90
27667;DHT22;15074;50.940;5.282;2023-11-19T15:18:00;12.80;99.90
27667;DHT22;15074;50.940;5.282;2023-11-19T15:20:26;12.80;99.90
27667;DHT22;15074;50.940;5.282;2023-11-19T15:22:55;12.80;99.90
27667;DHT22;15074;50.940;5.282;2023-11-19T15:25:21;12.80;99.90
27667;DHT22;15074;50.940;5.282;2023-11-19T15:27:48;12.80;99.90
27667;DHT22;15074;50.940;5.282;2023-11-19T15:30:14;12.90;99.90
27667;DHT22;15074;50.940;5.282;2023-11-19T15:32:41;12.80;99.90
27667;DHT22;15074;50.940;5.282;2023-11-19T15:35:09;12.80;99.90
27667;DHT22;15074;50.940;5.282;2023-11-19T15:37:36;12.70;99.90
27667;DHT22;15074;50.940;5.282;2023-11-19T15:40:06;12.80;99.90
27667;DHT22;15074;50.940;5.282;2023-11-19T15:42:34;12.80;99.90